sensor_id;sensor_type;location;lat;lon;timestamp;P1;durP1;ratioP1;P2;durP2;ratioP2
65096;SDS011;51686;46.758;4.356;2023-04-15T00:02:14;7.07;;;3.33;;
65096;SDS011;51686;46.758;4.356;2023-04-15T00:05:04;7.22;;;3.60;;
65096;SDS011;51686;46.758;4.356;2023-04-15T00:07:51;7.28;;;3.42;;
65096;SDS011;51686;46.758;4.356;2023-04-15T00:10:39;7.53;;;3.60;;
65096;SDS011;51686;46.758;4.356;2023-04-15T00:13:26;7.18;;;3.40;;
65096;SDS011;51686;46.758;4.356;2023-04-15T00:16:13;7.43;;;3.65;;
65096;SDS011;51686;46.758;4.356;2023-04-15T00:19:00;7.28;;;3.50;;
65096;SDS011;51686;46.758;4.356;2023-04-15T00:21:47;6.90;;;3.40;;
65096;SDS011;51686;46.758;4.356;2023-04-15T00:24:34;7.38;;;3.70;;
65096;SDS011;51686;46.758;4.356;2023-04-15T00:27:21;7.68;;;3.40;;
65096;SDS011;51686;46.758;4.356;2023-04-15T00:30:08;7.57;;;3.47;;
65096;SDS011;51686;46.758;4.356;2023-04-15T00:32:55;8.05;;;3.67;;
65096;SDS011;51686;46.758;4.356;2023-04-15T00:35:42;7.50;;;3.45;;
65096;SDS011;51686;46.758;4.356;2023-04-15T00:38:29;7.03;;;3.42;;
65096;SDS011;51686;46.758;4.356;2023-04-15T00:41:16;7.35;;;3.70;;
65096;SDS011;51686;46.758;4.356;2023-04-15T00:46:52;6.75;;;3.25;;
65096;SDS011;51686;46.758;4.356;2023-04-15T00:49:39;6.70;;;3.45;;
65096;SDS011;51686;46.758;4.356;2023-04-15T00:52:26;6.35;;;3.22;;
65096;SDS011;51686;46.758;4.356;2023-04-15T00:55:13;7.55;;;3.60;;
65096;SDS011;51686;46.758;4.356;2023-04-15T00:58:01;7.45;;;3.78;;
65096;SDS011;51686;46.758;4.356;2023-04-15T01:00:48;7.72;;;3.53;;
65096;SDS011;51686;46.758;4.356;2023-04-15T01:03:35;7.07;;;3.33;;
65096;SDS011;51686;46.758;4.356;2023-04-15T01:06:22;6.25;;;3.13;;
65096;SDS011;51686;46.758;4.356;2023-04-15T01:09:09;7.50;;;3.33;;
65096;SDS011;51686;46.758;4.356;2023-04-15T01:11:56;7.05;;;3.53;;
65096;SDS011;51686;46.758;4.356;2023-04-15T01:14:44;7.03;;;3.72;;
65096;SDS011;51686;46.758;4.356;2023-04-15T01:17:31;7.45;;;3.58;;
65096;SDS011;51686;46.758;4.356;2023-04-15T01:20:18;7.20;;;3.42;;
65096;SDS011;51686;46.758;4.356;2023-04-15T01:23:05;7.70;;;3.63;;
65096;SDS011;51686;46.758;4.356;2023-04-15T01:25:52;7.82;;;3.50;;
65096;SDS011;51686;46.758;4.356;2023-04-15T01:28:39;8.13;;;4.00;;
65096;SDS011;51686;46.758;4.356;2023-04-15T01:31:26;7.35;;;3.45;;
65096;SDS011;51686;46.758;4.356;2023-04-15T01:34:13;6.90;;;3.42;;
65096;SDS011;51686;46.758;4.356;2023-04-15T01:37:00;7.18;;;3.47;;
65096;SDS011;51686;46.758;4.356;2023-04-15T01:39:47;7.70;;;3.40;;
65096;SDS011;51686;46.758;4.356;2023-04-15T01:42:35;7.22;;;3.53;;
65096;SDS011;51686;46.758;4.356;2023-04-15T01:45:22;7.45;;;3.38;;
65096;SDS011;51686;46.758;4.356;2023-04-15T01:48:09;7.15;;;3.45;;
65096;SDS011;51686;46.758;4.356;2023-04-15T01:50:56;7.85;;;3.65;;
65096;SDS011;51686;46.758;4.356;2023-04-15T01:53:43;8.25;;;3.63;;
65096;SDS011;51686;46.758;4.356;2023-04-15T01:56:30;7.00;;;3.50;;
65096;SDS011;51686;46.758;4.356;2023-04-15T01:59:17;7.50;;;3.45;;
65096;SDS011;51686;46.758;4.356;2023-04-15T02:02:04;7.15;;;3.35;;
65096;SDS011;51686;46.758;4.356;2023-04-15T02:04:51;7.57;;;3.60;;
65096;SDS011;51686;46.758;4.356;2023-04-15T02:07:39;7.57;;;3.60;;
65096;SDS011;51686;46.758;4.356;2023-04-15T02:10:25;7.05;;;3.53;;
65096;SDS011;51686;46.758;4.356;2023-04-15T02:13:13;7.63;;;3.45;;
65096;SDS011;51686;46.758;4.356;2023-04-15T02:16:00;7.93;;;3.72;;
65096;SDS011;51686;46.758;4.356;2023-04-15T02:18:47;7.70;;;3.53;;
65096;SDS011;51686;46.758;4.356;2023-04-15T02:21:34;6.90;;;3.10;;
65096;SDS011;51686;46.758;4.356;2023-04-15T02:24:21;7.55;;;3.60;;
65096;SDS011;51686;46.758;4.356;2023-04-15T02:27:08;7.35;;;3.50;;
65096;SDS011;51686;46.758;4.356;2023-04-15T02:29:55;7.30;;;3.65;;
65096;SDS011;51686;46.758;4.356;2023-04-15T02:32:42;7.50;;;3.35;;
65096;SDS011;51686;46.758;4.356;2023-04-15T02:35:30;7.30;;;3.50;;
65096;SDS011;51686;46.758;4.356;2023-04-15T02:38:17;6.93;;;3.45;;
65096;SDS011;51686;46.758;4.356;2023-04-15T02:41:04;7.30;;;3.40;;
65096;SDS011;51686;46.758;4.356;2023-04-15T02:43:51;7.50;;;3.63;;
65096;SDS011;51686;46.758;4.356;2023-04-15T02:46:38;7.03;;;3.17;;
65096;SDS011;51686;46.758;4.356;2023-04-15T02:49:26;6.88;;;3.20;;
65096;SDS011;51686;46.758;4.356;2023-04-15T02:52:16;7.35;;;3.63;;
65096;SDS011;51686;46.758;4.356;2023-04-15T02:55:03;7.47;;;3.72;;
65096;SDS011;51686;46.758;4.356;2023-04-15T02:57:50;7.97;;;3.58;;
65096;SDS011;51686;46.758;4.356;2023-04-15T03:00:37;7.45;;;3.70;;
65096;SDS011;51686;46.758;4.356;2023-04-15T03:03:24;7.93;;;3.67;;
65096;SDS011;51686;46.758;4.356;2023-04-15T03:06:13;7.72;;;3.65;;
65096;SDS011;51686;46.758;4.356;2023-04-15T03:09:00;6.63;;;3.15;;
65096;SDS011;51686;46.758;4.356;2023-04-15T03:11:49;7.90;;;3.45;;
65096;SDS011;51686;46.758;4.356;2023-04-15T03:14:38;7.53;;;3.83;;
65096;SDS011;51686;46.758;4.356;2023-04-15T03:17:25;7.78;;;3.47;;
65096;SDS011;51686;46.758;4.356;2023-04-15T03:20:12;8.40;;;3.63;;
65096;SDS011;51686;46.758;4.356;2023-04-15T03:22:59;7.63;;;3.50;;
65096;SDS011;51686;46.758;4.356;2023-04-15T03:25:46;7.65;;;3.88;;
65096;SDS011;51686;46.758;4.356;2023-04-15T03:28:33;8.20;;;3.90;;
65096;SDS011;51686;46.758;4.356;2023-04-15T03:31:20;7.45;;;3.33;;
65096;SDS011;51686;46.758;4.356;2023-04-15T03:34:07;6.90;;;3.40;;
65096;SDS011;51686;46.758;4.356;2023-04-15T03:36:54;6.88;;;3.40;;
65096;SDS011;51686;46.758;4.356;2023-04-15T03:39:41;7.32;;;3.58;;
65096;SDS011;51686;46.758;4.356;2023-04-15T03:42:28;7.22;;;3.45;;
65096;SDS011;51686;46.758;4.356;2023-04-15T03:45:15;6.88;;;3.40;;
65096;SDS011;51686;46.758;4.356;2023-04-15T03:48:02;7.47;;;3.60;;
65096;SDS011;51686;46.758;4.356;2023-04-15T03:51:03;7.95;;;3.70;;
65096;SDS011;51686;46.758;4.356;2023-04-15T03:53:50;7.57;;;3.75;;
65096;SDS011;51686;46.758;4.356;2023-04-15T03:56:37;7.50;;;3.83;;
65096;SDS011;51686;46.758;4.356;2023-04-15T03:59:24;7.97;;;3.80;;
65096;SDS011;51686;46.758;4.356;2023-04-15T04:02:11;7.10;;;3.47;;
65096;SDS011;51686;46.758;4.356;2023-04-15T04:04:57;7.20;;;3.40;;
65096;SDS011;51686;46.758;4.356;2023-04-15T04:07:44;6.85;;;3.25;;
65096;SDS011;51686;46.758;4.356;2023-04-15T04:10:31;7.47;;;3.72;;
65096;SDS011;51686;46.758;4.356;2023-04-15T04:13:18;7.47;;;3.63;;
65096;SDS011;51686;46.758;4.356;2023-04-15T04:16:05;7.00;;;3.30;;
65096;SDS011;51686;46.758;4.356;2023-04-15T04:18:52;6.90;;;3.40;;
65096;SDS011;51686;46.758;4.356;2023-04-15T04:21:39;7.75;;;3.80;;
65096;SDS011;51686;46.758;4.356;2023-04-15T04:24:26;6.82;;;3.20;;
65096;SDS011;51686;46.758;4.356;2023-04-15T04:27:13;7.00;;;3.33;;
65096;SDS011;51686;46.758;4.356;2023-04-15T04:30:00;7.18;;;3.60;;
65096;SDS011;51686;46.758;4.356;2023-04-15T04:32:48;7.55;;;3.63;;
65096;SDS011;51686;46.758;4.356;2023-04-15T04:35:35;7.55;;;3.70;;
65096;SDS011;51686;46.758;4.356;2023-04-15T04:38:23;8.00;;;3.67;;
65096;SDS011;51686;46.758;4.356;2023-04-15T04:41:10;7.72;;;3.70;;
65096;SDS011;51686;46.758;4.356;2023-04-15T04:43:57;7.85;;;3.72;;
65096;SDS011;51686;46.758;4.356;2023-04-15T04:46:44;8.32;;;3.80;;
65096;SDS011;51686;46.758;4.356;2023-04-15T04:49:30;7.25;;;3.70;;
65096;SDS011;51686;46.758;4.356;2023-04-15T04:52:17;7.70;;;3.60;;
65096;SDS011;51686;46.758;4.356;2023-04-15T04:55:04;7.20;;;3.47;;
65096;SDS011;51686;46.758;4.356;2023-04-15T04:57:52;7.95;;;3.88;;
65096;SDS011;51686;46.758;4.356;2023-04-15T05:00:39;7.72;;;3.78;;
65096;SDS011;51686;46.758;4.356;2023-04-15T05:03:26;7.47;;;3.78;;
65096;SDS011;51686;46.758;4.356;2023-04-15T05:06:13;6.97;;;3.42;;
65096;SDS011;51686;46.758;4.356;2023-04-15T05:09:00;7.40;;;3.60;;
65096;SDS011;51686;46.758;4.356;2023-04-15T05:11:47;7.65;;;3.65;;
65096;SDS011;51686;46.758;4.356;2023-04-15T05:14:34;7.43;;;3.58;;
65096;SDS011;51686;46.758;4.356;2023-04-15T05:17:21;7.72;;;3.80;;
65096;SDS011;51686;46.758;4.356;2023-04-15T05:20:08;8.55;;;4.15;;
65096;SDS011;51686;46.758;4.356;2023-04-15T05:22:56;8.00;;;4.05;;
65096;SDS011;51686;46.758;4.356;2023-04-15T05:25:42;7.70;;;4.00;;
65096;SDS011;51686;46.758;4.356;2023-04-15T05:28:29;8.13;;;3.85;;
65096;SDS011;51686;46.758;4.356;2023-04-15T05:31:16;8.07;;;3.70;;
65096;SDS011;51686;46.758;4.356;2023-04-15T05:34:03;7.85;;;4.05;;
65096;SDS011;51686;46.758;4.356;2023-04-15T05:36:51;8.45;;;3.92;;
65096;SDS011;51686;46.758;4.356;2023-04-15T05:39:38;8.13;;;4.20;;
65096;SDS011;51686;46.758;4.356;2023-04-15T05:42:25;8.05;;;4.10;;
65096;SDS011;51686;46.758;4.356;2023-04-15T05:45:11;9.60;;;4.05;;
65096;SDS011;51686;46.758;4.356;2023-04-15T05:47:59;9.07;;;4.88;;
65096;SDS011;51686;46.758;4.356;2023-04-15T05:50:46;7.75;;;4.07;;
65096;SDS011;51686;46.758;4.356;2023-04-15T05:53:33;8.10;;;4.20;;
65096;SDS011;51686;46.758;4.356;2023-04-15T05:56:20;8.05;;;3.92;;
65096;SDS011;51686;46.758;4.356;2023-04-15T05:59:07;7.40;;;3.78;;
65096;SDS011;51686;46.758;4.356;2023-04-15T06:01:54;8.90;;;4.15;;
65096;SDS011;51686;46.758;4.356;2023-04-15T06:04:41;8.73;;;4.03;;
65096;SDS011;51686;46.758;4.356;2023-04-15T06:07:29;8.30;;;4.10;;
65096;SDS011;51686;46.758;4.356;2023-04-15T06:10:16;8.55;;;3.95;;
65096;SDS011;51686;46.758;4.356;2023-04-15T06:13:03;8.32;;;4.00;;
65096;SDS011;51686;46.758;4.356;2023-04-15T06:15:50;7.75;;;3.80;;
65096;SDS011;51686;46.758;4.356;2023-04-15T06:18:37;7.57;;;3.72;;
65096;SDS011;51686;46.758;4.356;2023-04-15T06:21:24;7.65;;;3.67;;
65096;SDS011;51686;46.758;4.356;2023-04-15T06:24:11;8.25;;;3.70;;
65096;SDS011;51686;46.758;4.356;2023-04-15T06:26:58;7.53;;;3.80;;
65096;SDS011;51686;46.758;4.356;2023-04-15T06:29:45;8.75;;;3.95;;
65096;SDS011;51686;46.758;4.356;2023-04-15T06:32:32;7.80;;;3.70;;
65096;SDS011;51686;46.758;4.356;2023-04-15T06:35:19;8.00;;;3.90;;
65096;SDS011;51686;46.758;4.356;2023-04-15T06:38:06;8.27;;;3.80;;
65096;SDS011;51686;46.758;4.356;2023-04-15T06:40:53;6.95;;;3.47;;
65096;SDS011;51686;46.758;4.356;2023-04-15T06:43:40;7.35;;;3.50;;
65096;SDS011;51686;46.758;4.356;2023-04-15T06:46:26;8.00;;;3.72;;
65096;SDS011;51686;46.758;4.356;2023-04-15T06:49:13;7.60;;;3.50;;
65096;SDS011;51686;46.758;4.356;2023-04-15T06:52:01;6.85;;;3.30;;
65096;SDS011;51686;46.758;4.356;2023-04-15T06:54:48;7.38;;;3.35;;
65096;SDS011;51686;46.758;4.356;2023-04-15T06:57:35;7.20;;;3.42;;
65096;SDS011;51686;46.758;4.356;2023-04-15T07:00:22;6.82;;;3.05;;
65096;SDS011;51686;46.758;4.356;2023-04-15T07:03:11;6.65;;;3.33;;
65096;SDS011;51686;46.758;4.356;2023-04-15T07:05:58;6.75;;;3.13;;
65096;SDS011;51686;46.758;4.356;2023-04-15T07:08:45;7.72;;;3.50;;
65096;SDS011;51686;46.758;4.356;2023-04-15T07:11:32;7.30;;;3.08;;
65096;SDS011;51686;46.758;4.356;2023-04-15T07:14:19;6.88;;;2.88;;
65096;SDS011;51686;46.758;4.356;2023-04-15T07:17:07;7.25;;;3.20;;
65096;SDS011;51686;46.758;4.356;2023-04-15T07:19:55;7.72;;;3.30;;
65096;SDS011;51686;46.758;4.356;2023-04-15T07:22:42;7.28;;;3.13;;
65096;SDS011;51686;46.758;4.356;2023-04-15T07:25:29;6.93;;;2.92;;
65096;SDS011;51686;46.758;4.356;2023-04-15T07:28:15;8.02;;;3.10;;
65096;SDS011;51686;46.758;4.356;2023-04-15T07:31:02;6.82;;;3.25;;
65096;SDS011;51686;46.758;4.356;2023-04-15T07:33:50;6.40;;;3.22;;
65096;SDS011;51686;46.758;4.356;2023-04-15T07:36:37;7.05;;;3.30;;
65096;SDS011;51686;46.758;4.356;2023-04-15T07:39:23;6.70;;;3.00;;
65096;SDS011;51686;46.758;4.356;2023-04-15T07:42:11;7.07;;;3.10;;
65096;SDS011;51686;46.758;4.356;2023-04-15T07:44:58;7.18;;;3.15;;
65096;SDS011;51686;46.758;4.356;2023-04-15T07:47:45;7.38;;;2.90;;
65096;SDS011;51686;46.758;4.356;2023-04-15T07:50:32;6.20;;;2.65;;
65096;SDS011;51686;46.758;4.356;2023-04-15T07:53:19;6.90;;;3.00;;
65096;SDS011;51686;46.758;4.356;2023-04-15T07:56:06;6.57;;;2.78;;
65096;SDS011;51686;46.758;4.356;2023-04-15T07:58:53;6.28;;;3.03;;
65096;SDS011;51686;46.758;4.356;2023-04-15T08:01:40;6.40;;;3.05;;
65096;SDS011;51686;46.758;4.356;2023-04-15T08:04:28;6.60;;;2.72;;
65096;SDS011;51686;46.758;4.356;2023-04-15T08:07:15;6.55;;;2.83;;
65096;SDS011;51686;46.758;4.356;2023-04-15T08:10:02;5.75;;;2.60;;
65096;SDS011;51686;46.758;4.356;2023-04-15T08:12:49;6.22;;;2.75;;
65096;SDS011;51686;46.758;4.356;2023-04-15T08:15:39;6.38;;;2.75;;
65096;SDS011;51686;46.758;4.356;2023-04-15T08:18:26;6.35;;;2.75;;
65096;SDS011;51686;46.758;4.356;2023-04-15T08:21:13;6.57;;;2.80;;
65096;SDS011;51686;46.758;4.356;2023-04-15T08:24:00;6.70;;;2.97;;
65096;SDS011;51686;46.758;4.356;2023-04-15T08:26:47;6.10;;;2.85;;
65096;SDS011;51686;46.758;4.356;2023-04-15T08:29:34;6.47;;;2.65;;
65096;SDS011;51686;46.758;4.356;2023-04-15T08:32:21;6.80;;;2.95;;
65096;SDS011;51686;46.758;4.356;2023-04-15T08:35:08;6.28;;;2.70;;
65096;SDS011;51686;46.758;4.356;2023-04-15T08:37:55;6.75;;;3.03;;
65096;SDS011;51686;46.758;4.356;2023-04-15T08:40:43;6.53;;;2.80;;
65096;SDS011;51686;46.758;4.356;2023-04-15T08:43:34;6.32;;;2.75;;
65096;SDS011;51686;46.758;4.356;2023-04-15T08:46:28;5.68;;;2.50;;
65096;SDS011;51686;46.758;4.356;2023-04-15T08:49:16;5.68;;;2.63;;
65096;SDS011;51686;46.758;4.356;2023-04-15T08:52:03;6.53;;;3.00;;
65096;SDS011;51686;46.758;4.356;2023-04-15T08:54:51;6.65;;;3.03;;
65096;SDS011;51686;46.758;4.356;2023-04-15T08:57:40;5.80;;;2.50;;
65096;SDS011;51686;46.758;4.356;2023-04-15T09:00:27;5.32;;;2.50;;
65096;SDS011;51686;46.758;4.356;2023-04-15T09:03:14;5.68;;;2.47;;
65096;SDS011;51686;46.758;4.356;2023-04-15T09:06:06;6.28;;;2.67;;
65096;SDS011;51686;46.758;4.356;2023-04-15T09:08:53;5.97;;;2.53;;
65096;SDS011;51686;46.758;4.356;2023-04-15T09:11:40;6.88;;;2.80;;
65096;SDS011;51686;46.758;4.356;2023-04-15T09:14:28;5.20;;;2.38;;
65096;SDS011;51686;46.758;4.356;2023-04-15T09:17:18;5.70;;;2.45;;
65096;SDS011;51686;46.758;4.356;2023-04-15T09:20:07;6.28;;;2.63;;
65096;SDS011;51686;46.758;4.356;2023-04-15T09:22:55;6.18;;;2.50;;
65096;SDS011;51686;46.758;4.356;2023-04-15T09:25:42;6.50;;;2.72;;
65096;SDS011;51686;46.758;4.356;2023-04-15T09:28:29;6.15;;;2.40;;
65096;SDS011;51686;46.758;4.356;2023-04-15T09:31:16;5.68;;;2.70;;
65096;SDS011;51686;46.758;4.356;2023-04-15T09:34:04;5.45;;;2.50;;
65096;SDS011;51686;46.758;4.356;2023-04-15T09:36:56;5.95;;;2.63;;
65096;SDS011;51686;46.758;4.356;2023-04-15T09:39:49;6.38;;;2.70;;
65096;SDS011;51686;46.758;4.356;2023-04-15T09:42:54;5.93;;;2.53;;
65096;SDS011;51686;46.758;4.356;2023-04-15T09:45:48;5.60;;;2.40;;
65096;SDS011;51686;46.758;4.356;2023-04-15T09:48:36;6.90;;;2.60;;
65096;SDS011;51686;46.758;4.356;2023-04-15T09:51:32;6.32;;;2.50;;
65096;SDS011;51686;46.758;4.356;2023-04-15T09:54:20;5.30;;;2.35;;
65096;SDS011;51686;46.758;4.356;2023-04-15T09:57:07;7.88;;;2.80;;
65096;SDS011;51686;46.758;4.356;2023-04-15T09:59:56;5.05;;;2.50;;
65096;SDS011;51686;46.758;4.356;2023-04-15T10:02:42;5.22;;;2.30;;
65096;SDS011;51686;46.758;4.356;2023-04-15T10:05:31;5.30;;;2.50;;
65096;SDS011;51686;46.758;4.356;2023-04-15T10:08:19;6.20;;;2.60;;
65096;SDS011;51686;46.758;4.356;2023-04-15T10:13:54;5.97;;;2.47;;
65096;SDS011;51686;46.758;4.356;2023-04-15T10:16:42;4.97;;;2.53;;
65096;SDS011;51686;46.758;4.356;2023-04-15T10:19:35;5.32;;;2.25;;
65096;SDS011;51686;46.758;4.356;2023-04-15T10:22:23;6.50;;;2.50;;
65096;SDS011;51686;46.758;4.356;2023-04-15T10:25:11;4.77;;;2.30;;
65096;SDS011;51686;46.758;4.356;2023-04-15T10:27:58;4.80;;;2.22;;
65096;SDS011;51686;46.758;4.356;2023-04-15T10:30:45;4.32;;;2.15;;
65096;SDS011;51686;46.758;4.356;2023-04-15T10:33:33;5.93;;;2.30;;
65096;SDS011;51686;46.758;4.356;2023-04-15T10:36:20;5.13;;;2.20;;
65096;SDS011;51686;46.758;4.356;2023-04-15T10:42:19;4.22;;;1.90;;
65096;SDS011;51686;46.758;4.356;2023-04-15T10:45:07;3.83;;;2.03;;
65096;SDS011;51686;46.758;4.356;2023-04-15T10:48:02;5.03;;;2.08;;
65096;SDS011;51686;46.758;4.356;2023-04-15T10:50:56;4.50;;;2.20;;
65096;SDS011;51686;46.758;4.356;2023-04-15T10:53:43;3.70;;;1.90;;
65096;SDS011;51686;46.758;4.356;2023-04-15T10:56:30;2.92;;;1.73;;
65096;SDS011;51686;46.758;4.356;2023-04-15T10:59:17;3.72;;;1.83;;
65096;SDS011;51686;46.758;4.356;2023-04-15T11:02:07;4.40;;;2.05;;
65096;SDS011;51686;46.758;4.356;2023-04-15T11:04:55;4.57;;;1.90;;
65096;SDS011;51686;46.758;4.356;2023-04-15T11:07:47;3.42;;;1.80;;
65096;SDS011;51686;46.758;4.356;2023-04-15T11:13:22;3.65;;;1.90;;
65096;SDS011;51686;46.758;4.356;2023-04-15T11:16:11;4.63;;;2.00;;
65096;SDS011;51686;46.758;4.356;2023-04-15T11:18:58;4.32;;;2.00;;
65096;SDS011;51686;46.758;4.356;2023-04-15T11:21:45;3.90;;;1.80;;
65096;SDS011;51686;46.758;4.356;2023-04-15T11:24:32;5.10;;;2.00;;
65096;SDS011;51686;46.758;4.356;2023-04-15T11:27:19;3.70;;;1.95;;
65096;SDS011;51686;46.758;4.356;2023-04-15T11:30:22;3.88;;;1.80;;
65096;SDS011;51686;46.758;4.356;2023-04-15T11:33:10;3.10;;;1.70;;
65096;SDS011;51686;46.758;4.356;2023-04-15T11:35:58;3.67;;;1.85;;
65096;SDS011;51686;46.758;4.356;2023-04-15T11:38:45;3.88;;;1.77;;
65096;SDS011;51686;46.758;4.356;2023-04-15T11:41:33;3.55;;;1.80;;
65096;SDS011;51686;46.758;4.356;2023-04-15T11:44:21;4.03;;;1.80;;
65096;SDS011;51686;46.758;4.356;2023-04-15T11:47:23;3.60;;;1.67;;
65096;SDS011;51686;46.758;4.356;2023-04-15T11:50:14;4.32;;;1.63;;
65096;SDS011;51686;46.758;4.356;2023-04-15T11:53:04;3.75;;;1.80;;
65096;SDS011;51686;46.758;4.356;2023-04-15T11:55:54;3.75;;;1.70;;
65096;SDS011;51686;46.758;4.356;2023-04-15T11:58:41;3.47;;;1.70;;
65096;SDS011;51686;46.758;4.356;2023-04-15T12:01:35;2.55;;;1.55;;
65096;SDS011;51686;46.758;4.356;2023-04-15T12:04:27;2.88;;;1.55;;
65096;SDS011;51686;46.758;4.356;2023-04-15T12:07:15;3.03;;;1.60;;
65096;SDS011;51686;46.758;4.356;2023-04-15T12:10:02;3.10;;;1.50;;
65096;SDS011;51686;46.758;4.356;2023-04-15T12:12:50;2.78;;;1.60;;
65096;SDS011;51686;46.758;4.356;2023-04-15T12:15:38;3.13;;;1.50;;
65096;SDS011;51686;46.758;4.356;2023-04-15T12:18:25;3.70;;;1.60;;
65096;SDS011;51686;46.758;4.356;2023-04-15T12:21:12;3.08;;;1.55;;
65096;SDS011;51686;46.758;4.356;2023-04-15T12:24:00;3.65;;;1.60;;
65096;SDS011;51686;46.758;4.356;2023-04-15T12:26:52;2.95;;;1.63;;
65096;SDS011;51686;46.758;4.356;2023-04-15T12:29:42;3.15;;;1.60;;
65096;SDS011;51686;46.758;4.356;2023-04-15T12:32:29;2.28;;;1.40;;
65096;SDS011;51686;46.758;4.356;2023-04-15T12:35:21;3.15;;;1.70;;
65096;SDS011;51686;46.758;4.356;2023-04-15T12:38:08;3.13;;;1.58;;
65096;SDS011;51686;46.758;4.356;2023-04-15T12:40:59;2.92;;;1.60;;
65096;SDS011;51686;46.758;4.356;2023-04-15T12:43:46;4.45;;;1.80;;
65096;SDS011;51686;46.758;4.356;2023-04-15T12:46:33;3.67;;;1.70;;
65096;SDS011;51686;46.758;4.356;2023-04-15T12:49:20;4.05;;;1.70;;
65096;SDS011;51686;46.758;4.356;2023-04-15T12:52:08;3.55;;;1.75;;
65096;SDS011;51686;46.758;4.356;2023-04-15T12:54:55;3.95;;;1.85;;
65096;SDS011;51686;46.758;4.356;2023-04-15T12:57:42;4.50;;;1.90;;
65096;SDS011;51686;46.758;4.356;2023-04-15T13:00:29;3.50;;;1.60;;
65096;SDS011;51686;46.758;4.356;2023-04-15T13:03:16;3.20;;;1.70;;
65096;SDS011;51686;46.758;4.356;2023-04-15T13:06:03;3.83;;;1.70;;
65096;SDS011;51686;46.758;4.356;2023-04-15T13:08:50;3.55;;;1.70;;
65096;SDS011;51686;46.758;4.356;2023-04-15T13:11:44;4.32;;;1.80;;
65096;SDS011;51686;46.758;4.356;2023-04-15T13:14:31;3.92;;;1.80;;
65096;SDS011;51686;46.758;4.356;2023-04-15T13:17:18;3.33;;;1.55;;
65096;SDS011;51686;46.758;4.356;2023-04-15T13:20:06;3.30;;;1.55;;
65096;SDS011;51686;46.758;4.356;2023-04-15T13:22:55;3.63;;;1.80;;
65096;SDS011;51686;46.758;4.356;2023-04-15T13:25:41;4.28;;;1.98;;
65096;SDS011;51686;46.758;4.356;2023-04-15T13:28:28;5.03;;;1.88;;
65096;SDS011;51686;46.758;4.356;2023-04-15T13:31:15;4.40;;;1.88;;
65096;SDS011;51686;46.758;4.356;2023-04-15T13:34:02;4.35;;;1.80;;
65096;SDS011;51686;46.758;4.356;2023-04-15T13:36:50;3.92;;;1.80;;
65096;SDS011;51686;46.758;4.356;2023-04-15T13:39:36;3.67;;;1.70;;
65096;SDS011;51686;46.758;4.356;2023-04-15T13:42:23;3.88;;;1.80;;
65096;SDS011;51686;46.758;4.356;2023-04-15T13:45:10;3.40;;;1.77;;
65096;SDS011;51686;46.758;4.356;2023-04-15T13:47:57;4.35;;;1.85;;
65096;SDS011;51686;46.758;4.356;2023-04-15T13:50:44;3.65;;;1.55;;
65096;SDS011;51686;46.758;4.356;2023-04-15T13:53:31;3.92;;;1.80;;
65096;SDS011;51686;46.758;4.356;2023-04-15T13:56:24;2.90;;;1.60;;
65096;SDS011;51686;46.758;4.356;2023-04-15T13:59:11;4.05;;;1.80;;
65096;SDS011;51686;46.758;4.356;2023-04-15T14:01:58;4.30;;;1.90;;
65096;SDS011;51686;46.758;4.356;2023-04-15T14:04:45;4.00;;;2.00;;
65096;SDS011;51686;46.758;4.356;2023-04-15T14:07:32;3.65;;;1.70;;
65096;SDS011;51686;46.758;4.356;2023-04-15T14:10:19;3.67;;;1.80;;
65096;SDS011;51686;46.758;4.356;2023-04-15T14:13:06;4.85;;;2.03;;
65096;SDS011;51686;46.758;4.356;2023-04-15T14:15:53;4.30;;;1.80;;
65096;SDS011;51686;46.758;4.356;2023-04-15T14:18:42;2.78;;;1.60;;
65096;SDS011;51686;46.758;4.356;2023-04-15T14:21:29;4.68;;;1.85;;
65096;SDS011;51686;46.758;4.356;2023-04-15T14:24:18;4.50;;;2.10;;
65096;SDS011;51686;46.758;4.356;2023-04-15T14:27:05;4.68;;;1.90;;
65096;SDS011;51686;46.758;4.356;2023-04-15T14:29:51;4.70;;;1.95;;
65096;SDS011;51686;46.758;4.356;2023-04-15T14:32:40;5.83;;;2.30;;
65096;SDS011;51686;46.758;4.356;2023-04-15T14:35:27;3.90;;;1.88;;
65096;SDS011;51686;46.758;4.356;2023-04-15T14:38:14;4.07;;;1.90;;
65096;SDS011;51686;46.758;4.356;2023-04-15T14:41:01;4.07;;;1.85;;
65096;SDS011;51686;46.758;4.356;2023-04-15T14:43:48;5.18;;;2.00;;
65096;SDS011;51686;46.758;4.356;2023-04-15T14:46:35;4.38;;;1.80;;
65096;SDS011;51686;46.758;4.356;2023-04-15T14:49:23;4.30;;;1.95;;
65096;SDS011;51686;46.758;4.356;2023-04-15T14:52:10;4.25;;;2.00;;
65096;SDS011;51686;46.758;4.356;2023-04-15T14:54:58;4.20;;;1.95;;
65096;SDS011;51686;46.758;4.356;2023-04-15T14:57:45;5.20;;;2.00;;
65096;SDS011;51686;46.758;4.356;2023-04-15T15:00:32;4.25;;;1.90;;
65096;SDS011;51686;46.758;4.356;2023-04-15T15:03:19;4.85;;;2.13;;
65096;SDS011;51686;46.758;4.356;2023-04-15T15:06:06;4.38;;;2.00;;
65096;SDS011;51686;46.758;4.356;2023-04-15T15:08:54;3.53;;;1.80;;
65096;SDS011;51686;46.758;4.356;2023-04-15T15:11:41;4.30;;;1.90;;
65096;SDS011;51686;46.758;4.356;2023-04-15T15:14:28;5.22;;;2.10;;
65096;SDS011;51686;46.758;4.356;2023-04-15T15:17:15;4.43;;;2.00;;
65096;SDS011;51686;46.758;4.356;2023-04-15T15:20:02;5.68;;;2.15;;
65096;SDS011;51686;46.758;4.356;2023-04-15T15:22:49;5.50;;;2.28;;
65096;SDS011;51686;46.758;4.356;2023-04-15T15:25:36;5.43;;;2.45;;
65096;SDS011;51686;46.758;4.356;2023-04-15T15:28:23;6.20;;;2.40;;
65096;SDS011;51686;46.758;4.356;2023-04-15T15:31:11;5.88;;;2.30;;
65096;SDS011;51686;46.758;4.356;2023-04-15T15:33:58;5.57;;;2.30;;
65096;SDS011;51686;46.758;4.356;2023-04-15T15:36:45;4.38;;;1.95;;
65096;SDS011;51686;46.758;4.356;2023-04-15T15:39:32;4.72;;;2.10;;
65096;SDS011;51686;46.758;4.356;2023-04-15T15:42:22;5.27;;;2.20;;
65096;SDS011;51686;46.758;4.356;2023-04-15T15:45:09;5.10;;;2.10;;
65096;SDS011;51686;46.758;4.356;2023-04-15T15:47:56;5.10;;;2.28;;
65096;SDS011;51686;46.758;4.356;2023-04-15T15:50:44;5.00;;;2.28;;
65096;SDS011;51686;46.758;4.356;2023-04-15T15:53:31;5.15;;;2.28;;
65096;SDS011;51686;46.758;4.356;2023-04-15T15:56:18;5.68;;;2.30;;
65096;SDS011;51686;46.758;4.356;2023-04-15T15:59:05;5.30;;;2.20;;
65096;SDS011;51686;46.758;4.356;2023-04-15T16:01:53;4.90;;;2.28;;
65096;SDS011;51686;46.758;4.356;2023-04-15T16:04:40;6.03;;;2.22;;
65096;SDS011;51686;46.758;4.356;2023-04-15T16:07:28;4.75;;;2.22;;
65096;SDS011;51686;46.758;4.356;2023-04-15T16:10:15;5.93;;;2.30;;
65096;SDS011;51686;46.758;4.356;2023-04-15T16:13:02;4.82;;;2.22;;
65096;SDS011;51686;46.758;4.356;2023-04-15T16:15:49;4.78;;;2.22;;
65096;SDS011;51686;46.758;4.356;2023-04-15T16:18:37;5.07;;;2.20;;
65096;SDS011;51686;46.758;4.356;2023-04-15T16:21:23;4.35;;;2.22;;
65096;SDS011;51686;46.758;4.356;2023-04-15T16:24:11;4.68;;;2.10;;
65096;SDS011;51686;46.758;4.356;2023-04-15T16:26:58;4.80;;;2.17;;
65096;SDS011;51686;46.758;4.356;2023-04-15T16:29:45;6.03;;;2.45;;
65096;SDS011;51686;46.758;4.356;2023-04-15T16:32:32;5.35;;;2.28;;
65096;SDS011;51686;46.758;4.356;2023-04-15T16:35:19;6.60;;;2.60;;
65096;SDS011;51686;46.758;4.356;2023-04-15T16:38:07;4.82;;;2.13;;
65096;SDS011;51686;46.758;4.356;2023-04-15T16:40:56;5.15;;;2.30;;
65096;SDS011;51686;46.758;4.356;2023-04-15T16:43:44;5.72;;;2.30;;
65096;SDS011;51686;46.758;4.356;2023-04-15T16:46:31;5.80;;;2.53;;
65096;SDS011;51686;46.758;4.356;2023-04-15T16:49:18;5.35;;;2.30;;
65096;SDS011;51686;46.758;4.356;2023-04-15T16:52:05;5.22;;;2.22;;
65096;SDS011;51686;46.758;4.356;2023-04-15T16:54:52;4.95;;;2.13;;
65096;SDS011;51686;46.758;4.356;2023-04-15T16:57:39;4.70;;;2.25;;
65096;SDS011;51686;46.758;4.356;2023-04-15T17:00:46;5.60;;;2.38;;
65096;SDS011;51686;46.758;4.356;2023-04-15T17:03:33;5.20;;;2.22;;